sensor_id;sensor_type;location;lat;lon;timestamp;P1;durP1;ratioP1;P2;durP2;ratioP2
43184;SDS011;28803;52.308;19.096;2022-07-23T00:01:36;11.50;;;8.95;;
43184;SDS011;28803;52.308;19.096;2022-07-23T00:04:31;12.43;;;8.23;;
43184;SDS011;28803;52.308;19.096;2022-07-23T00:07:25;12.05;;;8.90;;
43184;SDS011;28803;52.308;19.096;2022-07-23T00:09:58;9.32;;;8.32;;
43184;SDS011;28803;52.308;19.096;2022-07-23T00:12:53;10.25;;;8.60;;
43184;SDS011;28803;52.308;19.096;2022-07-23T00:15:26;13.27;;;8.85;;
43184;SDS011;28803;52.308;19.096;2022-07-23T00:18:20;9.93;;;8.70;;
43184;SDS011;28803;52.308;19.096;2022-07-23T00:21:00;11.95;;;8.93;;
43184;SDS011;28803;52.308;19.096;2022-07-23T00:23:40;10.40;;;8.40;;
43184;SDS011;28803;52.308;19.096;2022-07-23T00:27:03;13.20;;;9.25;;
43184;SDS011;28803;52.308;19.096;2022-07-23T00:29:43;10.15;;;8.45;;
43184;SDS011;28803;52.308;19.096;2022-07-23T00:32:31;12.63;;;8.40;;
43184;SDS011;28803;52.308;19.096;2022-07-23T00:35:25;13.30;;;8.75;;
43184;SDS011;28803;52.308;19.096;2022-07-23T00:38:14;10.65;;;8.27;;
43184;SDS011;28803;52.308;19.096;2022-07-23T00:40:47;10.45;;;9.00;;
43184;SDS011;28803;52.308;19.096;2022-07-23T00:43:35;11.70;;;9.32;;
43184;SDS011;28803;52.308;19.096;2022-07-23T00:46:08;10.60;;;9.32;;
43184;SDS011;28803;52.308;19.096;2022-07-23T00:48:56;11.18;;;9.20;;
43184;SDS011;28803;52.308;19.096;2022-07-23T00:51:30;11.65;;;8.50;;
43184;SDS011;28803;52.308;19.096;2022-07-23T00:54:19;10.82;;;8.82;;
43184;SDS011;28803;52.308;19.096;2022-07-23T00:56:54;13.70;;;8.85;;
43184;SDS011;28803;52.308;19.096;2022-07-23T00:59:42;12.18;;;9.05;;
43184;SDS011;28803;52.308;19.096;2022-07-23T01:02:36;11.90;;;9.32;;
43184;SDS011;28803;52.308;19.096;2022-07-23T01:05:31;11.27;;;9.13;;
43184;SDS011;28803;52.308;19.096;2022-07-23T01:08:05;12.65;;;10.05;;
43184;SDS011;28803;52.308;19.096;2022-07-23T01:10:52;11.95;;;10.15;;
43184;SDS011;28803;52.308;19.096;2022-07-23T01:13:33;11.35;;;9.82;;
43184;SDS011;28803;52.308;19.096;2022-07-23T01:16:13;11.80;;;9.38;;
43184;SDS011;28803;52.308;19.096;2022-07-23T01:18:55;10.85;;;8.95;;
43184;SDS011;28803;52.308;19.096;2022-07-23T01:21:37;13.07;;;9.70;;
43184;SDS011;28803;52.308;19.096;2022-07-23T01:24:19;10.32;;;9.07;;
43184;SDS011;28803;52.308;19.096;2022-07-23T01:27:00;14.43;;;10.23;;
43184;SDS011;28803;52.308;19.096;2022-07-23T01:29:40;12.82;;;10.63;;
43184;SDS011;28803;52.308;19.096;2022-07-23T01:32:31;14.43;;;10.25;;
43184;SDS011;28803;52.308;19.096;2022-07-23T01:35:24;12.35;;;10.85;;
43184;SDS011;28803;52.308;19.096;2022-07-23T01:38:13;15.25;;;11.50;;
43184;SDS011;28803;52.308;19.096;2022-07-23T01:40:47;15.60;;;11.43;;
43184;SDS011;28803;52.308;19.096;2022-07-23T01:43:34;12.88;;;11.27;;
43184;SDS011;28803;52.308;19.096;2022-07-23T01:46:08;13.52;;;11.32;;
43184;SDS011;28803;52.308;19.096;2022-07-23T01:48:55;17.17;;;12.40;;
43184;SDS011;28803;52.308;19.096;2022-07-23T01:51:29;14.35;;;11.93;;
43184;SDS011;28803;52.308;19.096;2022-07-23T01:54:16;14.57;;;11.25;;
43184;SDS011;28803;52.308;19.096;2022-07-23T01:56:49;17.17;;;11.63;;
43184;SDS011;28803;52.308;19.096;2022-07-23T01:59:36;13.80;;;12.05;;
43184;SDS011;28803;52.308;19.096;2022-07-23T02:02:11;17.02;;;12.90;;
43184;SDS011;28803;52.308;19.096;2022-07-23T02:04:58;14.02;;;12.52;;
43184;SDS011;28803;52.308;19.096;2022-07-23T02:07:39;13.65;;;12.25;;
43184;SDS011;28803;52.308;19.096;2022-07-23T02:10:26;16.13;;;13.65;;
43184;SDS011;28803;52.308;19.096;2022-07-23T02:13:09;16.55;;;13.25;;
43184;SDS011;28803;52.308;19.096;2022-07-23T02:15:57;17.15;;;14.88;;
43184;SDS011;28803;52.308;19.096;2022-07-23T02:18:43;19.77;;;14.50;;
43184;SDS011;28803;52.308;19.096;2022-07-23T02:21:33;17.75;;;14.95;;
43184;SDS011;28803;52.308;19.096;2022-07-23T02:24:16;14.52;;;13.02;;
43184;SDS011;28803;52.308;19.096;2022-07-23T02:27:03;17.08;;;14.60;;
43184;SDS011;28803;52.308;19.096;2022-07-23T02:29:44;15.88;;;13.80;;
43184;SDS011;28803;52.308;19.096;2022-07-23T02:32:24;15.70;;;13.55;;
43184;SDS011;28803;52.308;19.096;2022-07-23T02:35:05;15.32;;;12.88;;
43184;SDS011;28803;52.308;19.096;2022-07-23T02:37:53;18.60;;;14.40;;
43184;SDS011;28803;52.308;19.096;2022-07-23T02:40:34;17.73;;;13.57;;
43184;SDS011;28803;52.308;19.096;2022-07-23T02:43:14;16.88;;;14.07;;
43184;SDS011;28803;52.308;19.096;2022-07-23T02:45:54;20.55;;;15.52;;
43184;SDS011;28803;52.308;19.096;2022-07-23T02:48:34;21.77;;;16.33;;
43184;SDS011;28803;52.308;19.096;2022-07-23T02:51:15;16.10;;;14.40;;
43184;SDS011;28803;52.308;19.096;2022-07-23T02:53:55;17.25;;;15.50;;
43184;SDS011;28803;52.308;19.096;2022-07-23T02:56:36;17.90;;;15.85;;
43184;SDS011;28803;52.308;19.096;2022-07-23T02:59:23;17.88;;;15.45;;
43184;SDS011;28803;52.308;19.096;2022-07-23T03:02:04;20.58;;;15.65;;
43184;SDS011;28803;52.308;19.096;2022-07-23T03:04:51;19.45;;;15.50;;
43184;SDS011;28803;52.308;19.096;2022-07-23T03:07:32;18.33;;;16.17;;
43184;SDS011;28803;52.308;19.096;2022-07-23T03:10:19;16.75;;;15.00;;
43184;SDS011;28803;52.308;19.096;2022-07-23T03:13:00;16.50;;;14.60;;
43184;SDS011;28803;52.308;19.096;2022-07-23T03:15:47;17.48;;;14.40;;
43184;SDS011;28803;52.308;19.096;2022-07-23T03:18:28;16.67;;;14.85;;
43184;SDS011;28803;52.308;19.096;2022-07-23T03:21:12;14.15;;;12.65;;
43184;SDS011;28803;52.308;19.096;2022-07-23T03:23:53;16.77;;;13.77;;
43184;SDS011;28803;52.308;19.096;2022-07-23T03:26:40;17.05;;;15.30;;
43184;SDS011;28803;52.308;19.096;2022-07-23T03:29:21;18.20;;;16.25;;
43184;SDS011;28803;52.308;19.096;2022-07-23T03:32:08;19.92;;;16.17;;
43184;SDS011;28803;52.308;19.096;2022-07-23T03:34:50;13.98;;;12.57;;
43184;SDS011;28803;52.308;19.096;2022-07-23T03:37:38;15.55;;;13.23;;
43184;SDS011;28803;52.308;19.096;2022-07-23T03:40:19;16.85;;;14.05;;
43184;SDS011;28803;52.308;19.096;2022-07-23T03:43:06;16.92;;;14.07;;
43184;SDS011;28803;52.308;19.096;2022-07-23T03:45:47;18.33;;;14.15;;
43184;SDS011;28803;52.308;19.096;2022-07-23T03:48:55;15.50;;;13.43;;
43184;SDS011;28803;52.308;19.096;2022-07-23T03:51:53;16.10;;;14.02;;
43184;SDS011;28803;52.308;19.096;2022-07-23T03:54:26;15.35;;;12.95;;
43184;SDS011;28803;52.308;19.096;2022-07-23T03:57:20;16.33;;;13.13;;
43184;SDS011;28803;52.308;19.096;2022-07-23T04:00:31;17.17;;;14.70;;
43184;SDS011;28803;52.308;19.096;2022-07-23T04:03:25;16.80;;;15.00;;
43184;SDS011;28803;52.308;19.096;2022-07-23T04:05:58;22.98;;;18.17;;
43184;SDS011;28803;52.308;19.096;2022-07-23T04:08:45;20.65;;;17.95;;
43184;SDS011;28803;52.308;19.096;2022-07-23T04:11:18;23.75;;;18.95;;
43184;SDS011;28803;52.308;19.096;2022-07-23T04:14:06;25.90;;;17.40;;
43184;SDS011;28803;52.308;19.096;2022-07-23T04:16:39;22.35;;;18.35;;
43184;SDS011;28803;52.308;19.096;2022-07-23T04:19:27;21.13;;;18.88;;
43184;SDS011;28803;52.308;19.096;2022-07-23T04:22:00;23.63;;;17.23;;
43184;SDS011;28803;52.308;19.096;2022-07-23T04:24:48;22.73;;;18.67;;
43184;SDS011;28803;52.308;19.096;2022-07-23T04:27:23;19.73;;;17.55;;
43184;SDS011;28803;52.308;19.096;2022-07-23T04:30:13;23.15;;;19.23;;
43184;SDS011;28803;52.308;19.096;2022-07-23T04:32:53;20.70;;;18.50;;
43184;SDS011;28803;52.308;19.096;2022-07-23T04:35:34;23.70;;;19.63;;
43184;SDS011;28803;52.308;19.096;2022-07-23T04:38:15;22.75;;;20.42;;
43184;SDS011;28803;52.308;19.096;2022-07-23T04:41:02;21.80;;;18.92;;
43184;SDS011;28803;52.308;19.096;2022-07-23T04:43:42;21.58;;;19.23;;
43184;SDS011;28803;52.308;19.096;2022-07-23T04:46:30;26.00;;;19.55;;
43184;SDS011;28803;52.308;19.096;2022-07-23T04:49:10;21.70;;;17.63;;
43184;SDS011;28803;52.308;19.096;2022-07-23T04:51:57;22.17;;;17.85;;
43184;SDS011;28803;52.308;19.096;2022-07-23T04:54:37;21.02;;;17.95;;
43184;SDS011;28803;52.308;19.096;2022-07-23T04:57:25;19.90;;;17.42;;
43184;SDS011;28803;52.308;19.096;2022-07-23T05:00:06;20.98;;;18.20;;
43184;SDS011;28803;52.308;19.096;2022-07-23T05:03:00;21.17;;;18.15;;
43184;SDS011;28803;52.308;19.096;2022-07-23T05:05:33;25.00;;;19.60;;
43184;SDS011;28803;52.308;19.096;2022-07-23T05:08:27;22.05;;;16.10;;
43184;SDS011;28803;52.308;19.096;2022-07-23T05:11:01;23.92;;;15.75;;
43184;SDS011;28803;52.308;19.096;2022-07-23T05:13:55;19.60;;;16.58;;
43184;SDS011;28803;52.308;19.096;2022-07-23T05:16:29;18.48;;;15.65;;
43184;SDS011;28803;52.308;19.096;2022-07-23T05:19:23;21.45;;;16.52;;
43184;SDS011;28803;52.308;19.096;2022-07-23T05:21:56;16.60;;;14.88;;
43184;SDS011;28803;52.308;19.096;2022-07-23T05:24:43;19.17;;;15.98;;
43184;SDS011;28803;52.308;19.096;2022-07-23T05:27:16;21.33;;;15.00;;
43184;SDS011;28803;52.308;19.096;2022-07-23T05:30:10;18.15;;;14.18;;
43184;SDS011;28803;52.308;19.096;2022-07-23T05:32:44;17.83;;;15.73;;
43184;SDS011;28803;52.308;19.096;2022-07-23T05:35:38;22.05;;;15.07;;
43184;SDS011;28803;52.308;19.096;2022-07-23T05:38:11;15.40;;;13.90;;
43184;SDS011;28803;52.308;19.096;2022-07-23T05:41:05;16.40;;;14.63;;
43184;SDS011;28803;52.308;19.096;2022-07-23T05:43:38;16.20;;;13.32;;
43184;SDS011;28803;52.308;19.096;2022-07-23T05:46:25;15.38;;;13.20;;
43184;SDS011;28803;52.308;19.096;2022-07-23T05:48:59;15.25;;;13.65;;
43184;SDS011;28803;52.308;19.096;2022-07-23T05:51:53;15.65;;;12.07;;
43184;SDS011;28803;52.308;19.096;2022-07-23T05:54:26;14.80;;;12.65;;
43184;SDS011;28803;52.308;19.096;2022-07-23T05:57:20;14.63;;;12.25;;
43184;SDS011;28803;52.308;19.096;2022-07-23T05:59:53;12.07;;;10.88;;
43184;SDS011;28803;52.308;19.096;2022-07-23T06:02:47;17.67;;;11.48;;
43184;SDS011;28803;52.308;19.096;2022-07-23T06:05:21;11.00;;;9.90;;
43184;SDS011;28803;52.308;19.096;2022-07-23T06:08:15;10.20;;;9.07;;
43184;SDS011;28803;52.308;19.096;2022-07-23T06:10:48;12.15;;;9.50;;
43184;SDS011;28803;52.308;19.096;2022-07-23T06:13:42;14.82;;;10.57;;
43184;SDS011;28803;52.308;19.096;2022-07-23T06:16:15;9.68;;;8.63;;
43184;SDS011;28803;52.308;19.096;2022-07-23T06:19:02;10.38;;;9.13;;
43184;SDS011;28803;52.308;19.096;2022-07-23T06:21:35;11.07;;;7.18;;
43184;SDS011;28803;52.308;19.096;2022-07-23T06:24:25;9.13;;;8.05;;
43184;SDS011;28803;52.308;19.096;2022-07-23T06:26:58;11.18;;;7.88;;
43184;SDS011;28803;52.308;19.096;2022-07-23T06:29:52;11.43;;;7.20;;
43184;SDS011;28803;52.308;19.096;2022-07-23T06:32:27;10.95;;;7.82;;
43184;SDS011;28803;52.308;19.096;2022-07-23T06:35:21;9.63;;;7.65;;
43184;SDS011;28803;52.308;19.096;2022-07-23T06:38:15;7.68;;;6.57;;
43184;SDS011;28803;52.308;19.096;2022-07-23T06:40:49;7.80;;;6.85;;
43184;SDS011;28803;52.308;19.096;2022-07-23T06:43:43;7.03;;;5.93;;
43184;SDS011;28803;52.308;19.096;2022-07-23T06:46:37;8.52;;;6.28;;
43184;SDS011;28803;52.308;19.096;2022-07-23T06:49:11;5.85;;;5.05;;
43184;SDS011;28803;52.308;19.096;2022-07-23T06:51:58;7.15;;;6.00;;
43184;SDS011;28803;52.308;19.096;2022-07-23T06:54:32;11.40;;;5.57;;
43184;SDS011;28803;52.308;19.096;2022-07-23T06:57:19;10.35;;;5.00;;
43184;SDS011;28803;52.308;19.096;2022-07-23T06:59:53;5.00;;;3.50;;
43184;SDS011;28803;52.308;19.096;2022-07-23T07:02:40;6.18;;;4.57;;
43184;SDS011;28803;52.308;19.096;2022-07-23T07:05:14;6.10;;;3.55;;
43184;SDS011;28803;52.308;19.096;2022-07-23T07:08:01;5.53;;;3.90;;
43184;SDS011;28803;52.308;19.096;2022-07-23T07:10:41;5.63;;;2.70;;
43184;SDS011;28803;52.308;19.096;2022-07-23T07:13:35;3.65;;;2.53;;
43184;SDS011;28803;52.308;19.096;2022-07-23T07:16:09;4.47;;;2.50;;
43184;SDS011;28803;52.308;19.096;2022-07-23T07:19:11;2.80;;;2.25;;
43184;SDS011;28803;52.308;19.096;2022-07-23T07:21:44;2.50;;;2.10;;
43184;SDS011;28803;52.308;19.096;2022-07-23T07:24:38;3.63;;;2.35;;
43184;SDS011;28803;52.308;19.096;2022-07-23T07:27:11;3.42;;;2.40;;
43184;SDS011;28803;52.308;19.096;2022-07-23T07:30:05;5.22;;;2.97;;
43184;SDS011;28803;52.308;19.096;2022-07-23T07:33:00;5.28;;;3.15;;
43184;SDS011;28803;52.308;19.096;2022-07-23T07:35:34;3.22;;;2.90;;
43184;SDS011;28803;52.308;19.096;2022-07-23T07:38:28;3.92;;;2.60;;
43184;SDS011;28803;52.308;19.096;2022-07-23T07:41:02;6.13;;;2.80;;
43184;SDS011;28803;52.308;19.096;2022-07-23T07:43:56;3.22;;;2.47;;
43184;SDS011;28803;52.308;19.096;2022-07-23T07:46:31;3.40;;;2.67;;
43184;SDS011;28803;52.308;19.096;2022-07-23T07:49:18;4.22;;;3.05;;
43184;SDS011;28803;52.308;19.096;2022-07-23T07:52:05;3.70;;;3.30;;
43184;SDS011;28803;52.308;19.096;2022-07-23T07:54:45;6.22;;;2.80;;
43184;SDS011;28803;52.308;19.096;2022-07-23T07:57:26;5.78;;;2.90;;
43184;SDS011;28803;52.308;19.096;2022-07-23T08:00:07;3.47;;;2.53;;
43184;SDS011;28803;52.308;19.096;2022-07-23T08:02:50;4.60;;;2.97;;
43184;SDS011;28803;52.308;19.096;2022-07-23T08:05:45;5.28;;;2.90;;
43184;SDS011;28803;52.308;19.096;2022-07-23T08:08:19;6.82;;;2.63;;
43184;SDS011;28803;52.308;19.096;2022-07-23T08:11:13;3.17;;;2.40;;
43184;SDS011;28803;52.308;19.096;2022-07-23T08:13:47;3.25;;;2.85;;
43184;SDS011;28803;52.308;19.096;2022-07-23T08:16:34;2.75;;;2.45;;
43184;SDS011;28803;52.308;19.096;2022-07-23T08:19:28;3.53;;;2.78;;
43184;SDS011;28803;52.308;19.096;2022-07-23T08:22:15;3.97;;;2.80;;
43184;SDS011;28803;52.308;19.096;2022-07-23T08:24:49;4.03;;;2.50;;
43184;SDS011;28803;52.308;19.096;2022-07-23T08:27:43;2.97;;;2.55;;
43184;SDS011;28803;52.308;19.096;2022-07-23T08:30:17;5.25;;;2.28;;
43184;SDS011;28803;52.308;19.096;2022-07-23T08:33:13;3.38;;;2.60;;
43184;SDS011;28803;52.308;19.096;2022-07-23T08:35:57;3.20;;;2.70;;
43184;SDS011;28803;52.308;19.096;2022-07-23T08:38:51;3.63;;;2.17;;
43184;SDS011;28803;52.308;19.096;2022-07-23T08:41:25;2.70;;;2.10;;
43184;SDS011;28803;52.308;19.096;2022-07-23T08:44:12;3.22;;;2.47;;
43184;SDS011;28803;52.308;19.096;2022-07-23T08:46:49;3.97;;;1.92;;
43184;SDS011;28803;52.308;19.096;2022-07-23T08:49:36;4.90;;;2.72;;
43184;SDS011;28803;52.308;19.096;2022-07-23T08:52:11;4.35;;;2.40;;
43184;SDS011;28803;52.308;19.096;2022-07-23T08:55:04;3.47;;;2.53;;
43184;SDS011;28803;52.308;19.096;2022-07-23T08:57:47;3.10;;;2.17;;
43184;SDS011;28803;52.308;19.096;2022-07-23T09:00:35;3.20;;;2.42;;
43184;SDS011;28803;52.308;19.096;2022-07-23T09:03:20;3.35;;;2.40;;
43184;SDS011;28803;52.308;19.096;2022-07-23T09:06:09;4.63;;;2.47;;
43184;SDS011;28803;52.308;19.096;2022-07-23T09:08:50;9.25;;;2.58;;
43184;SDS011;28803;52.308;19.096;2022-07-23T09:11:30;6.13;;;2.75;;
43184;SDS011;28803;52.308;19.096;2022-07-23T09:14:11;4.82;;;2.70;;
43184;SDS011;28803;52.308;19.096;2022-07-23T09:16:51;4.70;;;2.50;;
43184;SDS011;28803;52.308;19.096;2022-07-23T09:19:32;5.20;;;2.70;;
43184;SDS011;28803;52.308;19.096;2022-07-23T09:22:25;7.63;;;2.83;;
43184;SDS011;28803;52.308;19.096;2022-07-23T09:25:11;4.65;;;2.60;;
43184;SDS011;28803;52.308;19.096;2022-07-23T09:27:54;5.57;;;3.00;;
43184;SDS011;28803;52.308;19.096;2022-07-23T09:30:38;3.45;;;2.83;;
43184;SDS011;28803;52.308;19.096;2022-07-23T09:33:22;10.73;;;3.05;;
43184;SDS011;28803;52.308;19.096;2022-07-23T09:36:06;3.45;;;2.38;;
43184;SDS011;28803;52.308;19.096;2022-07-23T09:38:50;3.20;;;2.63;;
43184;SDS011;28803;52.308;19.096;2022-07-23T09:41:35;4.18;;;2.50;;
43184;SDS011;28803;52.308;19.096;2022-07-23T09:44:22;3.58;;;2.17;;
43184;SDS011;28803;52.308;19.096;2022-07-23T09:47:03;6.28;;;2.58;;
43184;SDS011;28803;52.308;19.096;2022-07-23T09:52:51;3.53;;;3.10;;
43184;SDS011;28803;52.308;19.096;2022-07-23T09:55:38;4.63;;;2.85;;
43184;SDS011;28803;52.308;19.096;2022-07-23T09:58:13;4.77;;;2.57;;
43184;SDS011;28803;52.308;19.096;2022-07-23T10:01:01;6.15;;;2.33;;
43184;SDS011;28803;52.308;19.096;2022-07-23T10:03:36;6.77;;;2.47;;
43184;SDS011;28803;52.308;19.096;2022-07-23T10:06:24;5.35;;;2.85;;
43184;SDS011;28803;52.308;19.096;2022-07-23T10:09:00;4.72;;;2.97;;
43184;SDS011;28803;52.308;19.096;2022-07-23T10:11:48;6.22;;;2.88;;
43184;SDS011;28803;52.308;19.096;2022-07-23T10:14:23;5.57;;;3.00;;
43184;SDS011;28803;52.308;19.096;2022-07-23T10:17:12;6.95;;;3.35;;
43184;SDS011;28803;52.308;19.096;2022-07-23T10:19:46;3.50;;;3.00;;
43184;SDS011;28803;52.308;19.096;2022-07-23T10:22:35;4.60;;;3.07;;
43184;SDS011;28803;52.308;19.096;2022-07-23T10:25:32;6.43;;;3.05;;
43184;SDS011;28803;52.308;19.096;2022-07-23T10:37:22;4.75;;;3.30;;
43184;SDS011;28803;52.308;19.096;2022-07-23T10:40:20;3.85;;;3.10;;
43184;SDS011;28803;52.308;19.096;2022-07-23T10:43:02;4.50;;;3.30;;
43184;SDS011;28803;52.308;19.096;2022-07-23T10:49:25;8.82;;;3.50;;
43184;SDS011;28803;52.308;19.096;2022-07-23T10:57:53;2.97;;;2.70;;
43184;SDS011;28803;52.308;19.096;2022-07-23T11:00:35;6.47;;;3.38;;
43184;SDS011;28803;52.308;19.096;2022-07-23T11:03:32;5.80;;;3.25;;
43184;SDS011;28803;52.308;19.096;2022-07-23T11:06:17;6.05;;;3.50;;
43184;SDS011;28803;52.308;19.096;2022-07-23T11:15:14;4.95;;;3.38;;
43184;SDS011;28803;52.308;19.096;2022-07-23T11:20:42;6.18;;;3.53;;
43184;SDS011;28803;52.308;19.096;2022-07-23T11:23:23;5.32;;;3.92;;
43184;SDS011;28803;52.308;19.096;2022-07-23T11:26:59;6.22;;;4.10;;
43184;SDS011;28803;52.308;19.096;2022-07-23T11:29:37;6.15;;;3.42;;
43184;SDS011;28803;52.308;19.096;2022-07-23T11:32:27;4.28;;;3.45;;
43184;SDS011;28803;52.308;19.096;2022-07-23T11:35:06;4.75;;;3.70;;
43184;SDS011;28803;52.308;19.096;2022-07-23T11:38:19;4.93;;;3.03;;
43184;SDS011;28803;52.308;19.096;2022-07-23T11:40:54;27.40;;;20.35;;
43184;SDS011;28803;52.308;19.096;2022-07-23T11:43:38;9.38;;;6.68;;
43184;SDS011;28803;52.308;19.096;2022-07-23T11:46:32;34.08;;;5.90;;
43184;SDS011;28803;52.308;19.096;2022-07-23T11:49:06;9.05;;;4.78;;
43184;SDS011;28803;52.308;19.096;2022-07-23T11:55:14;6.30;;;4.18;;
43184;SDS011;28803;52.308;19.096;2022-07-23T11:57:51;13.13;;;7.43;;
43184;SDS011;28803;52.308;19.096;2022-07-23T12:00:39;18.73;;;6.88;;
43184;SDS011;28803;52.308;19.096;2022-07-23T12:13:18;25.67;;;9.95;;
43184;SDS011;28803;52.308;19.096;2022-07-23T12:16:06;16.50;;;9.32;;
43184;SDS011;28803;52.308;19.096;2022-07-23T12:18:41;15.32;;;9.40;;
43184;SDS011;28803;52.308;19.096;2022-07-23T12:21:27;25.20;;;12.25;;
43184;SDS011;28803;52.308;19.096;2022-07-23T12:24:07;32.25;;;13.90;;
43184;SDS011;28803;52.308;19.096;2022-07-23T12:42:56;17.08;;;13.32;;
43184;SDS011;28803;52.308;19.096;2022-07-23T12:46:06;17.05;;;13.52;;
43184;SDS011;28803;52.308;19.096;2022-07-23T12:48:56;23.55;;;15.10;;
43184;SDS011;28803;52.308;19.096;2022-07-23T12:51:39;17.35;;;12.98;;
43184;SDS011;28803;52.308;19.096;2022-07-23T12:54:19;19.40;;;12.95;;
43184;SDS011;28803;52.308;19.096;2022-07-23T12:57:08;22.88;;;13.38;;
43184;SDS011;28803;52.308;19.096;2022-07-23T12:59:50;24.45;;;13.40;;
43184;SDS011;28803;52.308;19.096;2022-07-23T13:02:44;20.67;;;14.30;;
43184;SDS011;28803;52.308;19.096;2022-07-23T13:05:24;22.67;;;15.77;;
43184;SDS011;28803;52.308;19.096;2022-07-23T13:08:05;21.73;;;17.45;;
43184;SDS011;28803;52.308;19.096;2022-07-23T13:10:45;21.48;;;15.65;;
43184;SDS011;28803;52.308;19.096;2022-07-23T13:13:29;15.80;;;13.40;;
43184;SDS011;28803;52.308;19.096;2022-07-23T13:16:10;21.92;;;14.98;;
43184;SDS011;28803;52.308;19.096;2022-07-23T13:18:54;23.17;;;15.93;;
43184;SDS011;28803;52.308;19.096;2022-07-23T13:21:35;24.10;;;17.92;;
43184;SDS011;28803;52.308;19.096;2022-07-23T13:24:17;20.30;;;17.20;;
43184;SDS011;28803;52.308;19.096;2022-07-23T13:27:04;23.88;;;17.33;;
43184;SDS011;28803;52.308;19.096;2022-07-23T13:29:45;23.10;;;16.55;;
43184;SDS011;28803;52.308;19.096;2022-07-23T13:32:31;21.90;;;15.40;;
43184;SDS011;28803;52.308;19.096;2022-07-23T13:35:05;19.42;;;16.00;;
43184;SDS011;28803;52.308;19.096;2022-07-23T13:37:59;20.27;;;16.42;;
43184;SDS011;28803;52.308;19.096;2022-07-23T13:40:36;20.67;;;14.68;;
43184;SDS011;28803;52.308;19.096;2022-07-23T13:43:31;21.55;;;16.58;;
43184;SDS011;28803;52.308;19.096;2022-07-23T13:46:06;20.30;;;16.23;;
43184;SDS011;28803;52.308;19.096;2022-07-23T13:49:00;24.60;;;16.92;;
43184;SDS011;28803;52.308;19.096;2022-07-23T13:51:54;22.88;;;16.77;;
43184;SDS011;28803;52.308;19.096;2022-07-23T13:54:49;19.17;;;16.20;;
43184;SDS011;28803;52.308;19.096;2022-07-23T13:57:23;24.15;;;17.77;;
43184;SDS011;28803;52.308;19.096;2022-07-23T14:00:17;22.55;;;17.60;;
43184;SDS011;28803;52.308;19.096;2022-07-23T14:03:11;18.60;;;15.90;;
43184;SDS011;28803;52.308;19.096;2022-07-23T14:06:06;18.52;;;15.82;;
43184;SDS011;28803;52.308;19.096;2022-07-23T14:08:43;14.02;;;12.50;;
43184;SDS011;28803;52.308;19.096;2022-07-23T14:11:37;15.40;;;13.77;;
43184;SDS011;28803;52.308;19.096;2022-07-23T14:14:31;14.93;;;12.65;;
43184;SDS011;28803;52.308;19.096;2022-07-23T14:17:06;16.85;;;15.10;;
43184;SDS011;28803;52.308;19.096;2022-07-23T14:19:59;14.60;;;11.90;;
43184;SDS011;28803;52.308;19.096;2022-07-23T14:22:33;16.27;;;12.70;;
43184;SDS011;28803;52.308;19.096;2022-07-23T14:25:27;18.05;;;14.10;;
43184;SDS011;28803;52.308;19.096;2022-07-23T14:28:01;19.30;;;13.77;;
43184;SDS011;28803;52.308;19.096;2022-07-23T14:30:47;17.00;;;14.60;;
43184;SDS011;28803;52.308;19.096;2022-07-23T14:33:21;18.58;;;14.57;;
43184;SDS011;28803;52.308;19.096;2022-07-23T14:36:07;21.83;;;16.27;;
43184;SDS011;28803;52.308;19.096;2022-07-23T14:38:41;20.40;;;16.80;;
43184;SDS011;28803;52.308;19.096;2022-07-23T14:41:28;22.58;;;16.45;;
43184;SDS011;28803;52.308;19.096;2022-07-23T14:44:02;19.67;;;16.00;;
43184;SDS011;28803;52.308;19.096;2022-07-23T14:46:49;16.33;;;14.73;;
43184;SDS011;28803;52.308;19.096;2022-07-23T14:49:23;16.92;;;14.40;;
43184;SDS011;28803;52.308;19.096;2022-07-23T14:52:10;22.00;;;16.20;;
43184;SDS011;28803;52.308;19.096;2022-07-23T14:54:44;21.63;;;15.05;;
43184;SDS011;28803;52.308;19.096;2022-07-23T14:57:37;21.33;;;14.55;;
43184;SDS011;28803;52.308;19.096;2022-07-23T15:00:11;20.52;;;14.25;;
43184;SDS011;28803;52.308;19.096;2022-07-23T15:03:05;17.13;;;14.77;;
43184;SDS011;28803;52.308;19.096;2022-07-23T15:05:41;18.70;;;13.60;;
43184;SDS011;28803;52.308;19.096;2022-07-23T15:08:36;16.13;;;14.50;;
43184;SDS011;28803;52.308;19.096;2022-07-23T15:11:10;12.32;;;11.13;;
43184;SDS011;28803;52.308;19.096;2022-07-23T15:13:56;13.73;;;10.68;;
43184;SDS011;28803;52.308;19.096;2022-07-23T15:16:30;11.65;;;10.45;;
43184;SDS011;28803;52.308;19.096;2022-07-23T15:19:18;13.18;;;10.30;;
43184;SDS011;28803;52.308;19.096;2022-07-23T15:22:02;11.50;;;10.27;;
43184;SDS011;28803;52.308;19.096;2022-07-23T15:24:49;12.20;;;10.10;;
43184;SDS011;28803;52.308;19.096;2022-07-23T15:27:23;15.48;;;11.48;;
43184;SDS011;28803;52.308;19.096;2022-07-23T15:30:11;16.90;;;11.95;;
43184;SDS011;28803;52.308;19.096;2022-07-23T15:32:45;11.10;;;9.48;;
43184;SDS011;28803;52.308;19.096;2022-07-23T15:35:32;13.98;;;9.23;;
43184;SDS011;28803;52.308;19.096;2022-07-23T15:38:12;19.50;;;10.77;;
43184;SDS011;28803;52.308;19.096;2022-07-23T15:41:02;18.33;;;10.80;;
43184;SDS011;28803;52.308;19.096;2022-07-23T15:43:57;14.88;;;10.48;;
43184;SDS011;28803;52.308;19.096;2022-07-23T15:47:11;17.35;;;11.80;;
43184;SDS011;28803;52.308;19.096;2022-07-23T15:50:08;18.13;;;13.25;;
43184;SDS011;28803;52.308;19.096;2022-07-23T15:52:42;20.05;;;12.75;;
43184;SDS011;28803;52.308;19.096;2022-07-23T15:55:29;16.00;;;12.05;;
43184;SDS011;28803;52.308;19.096;2022-07-23T15:58:05;13.63;;;12.15;;
43184;SDS011;28803;52.308;19.096;2022-07-23T16:00:52;20.38;;;12.27;;
43184;SDS011;28803;52.308;19.096;2022-07-23T16:03:27;17.08;;;11.73;;
43184;SDS011;28803;52.308;19.096;2022-07-23T16:06:13;14.70;;;11.77;;
43184;SDS011;28803;52.308;19.096;2022-07-23T16:08:47;16.90;;;12.20;;
43184;SDS011;28803;52.308;19.096;2022-07-23T16:11:43;15.65;;;11.15;;
43184;SDS011;28803;52.308;19.096;2022-07-23T16:14:17;13.38;;;11.98;;
43184;SDS011;28803;52.308;19.096;2022-07-23T16:17:11;14.48;;;11.88;;
43184;SDS011;28803;52.308;19.096;2022-07-23T16:20:06;18.98;;;13.98;;
43184;SDS011;28803;52.308;19.096;2022-07-23T16:22:41;15.48;;;13.32;;
43184;SDS011;28803;52.308;19.096;2022-07-23T16:25:28;14.43;;;12.93;;
43184;SDS011;28803;52.308;19.096;2022-07-23T16:28:03;15.55;;;12.90;;
43184;SDS011;28803;52.308;19.096;2022-07-23T16:30:51;15.40;;;13.90;;
43184;SDS011;28803;52.308;19.096;2022-07-23T16:33:25;19.90;;;14.50;;
43184;SDS011;28803;52.308;19.096;2022-07-23T16:36:11;17.80;;;13.57;;
43184;SDS011;28803;52.308;19.096;2022-07-23T16:38:45;20.98;;;13.55;;
43184;SDS011;28803;52.308;19.096;2022-07-23T16:44:18;18.58;;;13.10;;
43184;SDS011;28803;52.308;19.096;2022-07-23T16:47:11;14.55;;;11.68;;
43184;SDS011;28803;52.308;19.096;2022-07-23T16:49:45;12.40;;;11.10;;
43184;SDS011;28803;52.308;19.096;2022-07-23T16:52:32;13.60;;;10.82;;
43184;SDS011;28803;52.308;19.096;2022-07-23T16:55:06;15.98;;;10.23;;
43184;SDS011;28803;52.308;19.096;2022-07-23T16:58:00;12.38;;;10.27;;
43184;SDS011;28803;52.308;19.096;2022-07-23T17:00:34;11.48;;;10.27;;